Terminal Aerodrome Forecast
Issued by NWS

Home | Current Version | Previous Version | Text Only | Print | Product List | Glossary On
Versions: 1 2 3 4 5 6 7 8 9 10 11 12 13
000
FTUS43 KMQT 250531
TAFCMX
TAF
KCMX 250531Z 2506/2606 27010KT P6SM BKN250
     FM251500 27015G23KT P6SM FEW200
     FM251900 27019G29KT P6SM FEW200
     FM260200 28015G24KT P6SM SCT050
     FM260500 29011G18KT P6SM BKN035=

USA.gov is the U.S. government's official web portal to all federal, state and local government web resources and services.